Time;durP1;ratioP1;P1;durP2;ratioP2;P2;SDS_P1;SDS_P2;PMS_P1;PMS_P2;Temp;Humidity;BMP_temperature;BMP_pressure;BME280_temperature;BME280_humidity;BME280_pressure;Samples;Min_cycle;Max_cycle;Signal;HPM_P1;HPM_P2
2023/12/27 00:00:50;;;;;;;8.57;4.43;;;;;;;3.78;100.00;102060.88;5032194;28;20025;-76
2023/12/27 00:03:15;;;;;;;11.32;3.92;;;;;;;3.69;100.00;102051.91;5050035;28;20098;-76
2023/12/27 00:05:40;;;;;;;10.77;3.53;;;;;;;3.70;100.00;102055.38;5048727;28;20033;-76
2023/12/27 00:08:06;;;;;;;10.02;3.60;;;;;;;3.67;100.00;102053.00;5050095;28;20029;-76
2023/12/27 00:10:31;;;;;;;13.75;5.15;;;;;;;3.59;100.00;102042.19;5048397;28;20052;-76
2023/12/27 00:12:56;;;;;;;17.38;6.13;;;;;;;3.58;100.00;102040.53;5049971;28;20070;-76
2023/12/27 00:15:22;;;;;;;10.50;5.43;;;;;;;3.55;100.00;102035.50;5031984;28;20499;-76
2023/12/27 00:17:47;;;;;;;11.98;4.85;;;;;;;3.51;100.00;102035.75;5049766;28;20040;-76
2023/12/27 00:20:13;;;;;;;11.43;5.03;;;;;;;3.49;100.00;102036.81;5049779;28;20368;-76
2023/12/27 00:22:38;;;;;;;11.25;5.10;;;;;;;3.44;100.00;102029.28;5048298;28;20028;-76
2023/12/27 00:25:04;;;;;;;12.73;5.43;;;;;;;3.41;100.00;102036.59;5049704;28;20036;-76
2023/12/27 00:27:29;;;;;;;14.52;5.40;;;;;;;3.28;100.00;102023.53;5048137;28;20036;-76
2023/12/27 00:29:55;;;;;;;21.20;6.93;;;;;;;3.32;100.00;102032.84;5047944;28;20032;-76
2023/12/27 00:32:20;;;;;;;9.88;4.93;;;;;;;3.24;100.00;102032.63;5048068;28;20116;-76
2023/12/27 00:34:48;;;;;;;12.55;6.18;;;;;;;3.25;100.00;102039.59;5048091;28;20056;-76
2023/12/27 00:37:13;;;;;;;10.73;4.85;;;;;;;3.25;100.00;102042.22;5048291;28;20039;-81
2023/12/27 00:39:38;;;;;;;12.80;5.43;;;;;;;3.17;100.00;102037.56;5050899;28;20025;-81
2023/12/27 00:42:04;;;;;;;11.95;5.28;;;;;;;3.17;100.00;102036.69;5049616;28;20105;-81
2023/12/27 00:44:29;;;;;;;13.63;6.40;;;;;;;3.22;100.00;102045.06;5050957;28;20112;-81
2023/12/27 00:46:56;;;;;;;14.38;5.68;;;;;;;3.23;100.00;102036.22;5050894;28;20032;-81
2023/12/27 00:49:22;;;;;;;28.42;7.65;;;;;;;3.16;100.00;102033.22;5051002;28;20029;-81
2023/12/27 00:51:47;;;;;;;15.35;5.80;;;;;;;3.06;100.00;102019.06;5050658;28;20036;-81
2023/12/27 00:54:12;;;;;;;15.52;6.88;;;;;;;3.14;100.00;102027.22;5050624;28;20029;-81
2023/12/27 00:56:39;;;;;;;15.07;6.15;;;;;;;3.12;100.00;102015.97;5050494;28;20033;-81
2023/12/27 00:59:05;;;;;;;16.88;6.85;;;;;;;3.14;100.00;102027.22;5050514;28;20044;-81
2023/12/27 01:01:30;;;;;;;18.27;6.63;;;;;;;3.18;100.00;102027.84;5049364;28;20514;-81
2023/12/27 01:03:56;;;;;;;13.38;6.97;;;;;;;3.17;100.00;102020.88;5050696;28;20036;-81
2023/12/27 01:06:21;;;;;;;17.60;6.35;;;;;;;3.17;100.00;102021.72;5050700;28;20043;-81
2023/12/27 01:08:47;;;;;;;14.00;6.28;;;;;;;3.16;100.00;102030.56;5049618;28;20093;-81
2023/12/27 01:11:12;;;;;;;14.25;6.00;;;;;;;3.11;100.00;102021.34;5050352;28;20399;-81
2023/12/27 01:13:38;;;;;;;15.20;7.22;;;;;;;3.11;100.00;102035.38;5049419;28;20437;-81
2023/12/27 01:16:03;;;;;;;16.80;6.65;;;;;;;3.14;100.00;102027.22;5050565;28;20028;-81
2023/12/27 01:18:29;;;;;;;12.38;5.72;;;;;;;3.10;100.00;102025.78;5050483;28;20528;-81
2023/12/27 01:20:54;;;;;;;17.42;7.78;;;;;;;3.10;100.00;102023.16;5049325;28;20120;-81
2023/12/27 01:23:19;;;;;;;15.13;8.27;;;;;;;3.12;100.00;102023.88;5050539;28;20028;-81
2023/12/27 01:25:45;;;;;;;17.20;5.57;;;;;;;3.14;100.00;102026.38;5050369;28;20061;-81
2023/12/27 01:28:10;;;;;;;11.80;6.18;;;;;;;3.11;100.00;102018.72;5049303;28;20032;-81
2023/12/27 01:30:35;;;;;;;13.93;5.80;;;;;;;3.09;100.00;102024.09;5049270;28;20025;-81
2023/12/27 01:33:01;;;;;;;13.55;6.43;;;;;;;3.03;100.00;102016.69;5050044;28;20144;-81
2023/12/27 01:35:27;;;;;;;13.05;5.80;;;;;;;2.99;100.00;102016.09;5049282;28;20033;-81
2023/12/27 01:37:52;;;;;;;12.55;6.53;;;;;;;2.97;100.00;102010.09;5050267;28;20035;-82
2023/12/27 01:40:17;;;;;;;14.43;5.60;;;;;;;2.96;100.00;102004.91;5048947;28;20037;-76
2023/12/27 01:42:43;;;;;;;16.15;7.18;;;;;;;2.99;100.00;101997.63;5032104;28;20033;-76
2023/12/27 01:45:08;;;;;;;15.88;6.30;;;;;;;3.02;100.00;102015.84;5052710;28;20125;-76
2023/12/27 01:47:36;;;;;;;15.20;6.18;;;;;;;2.97;100.00;101998.72;5052598;28;20484;-76
2023/12/27 01:50:03;;;;;;;13.25;5.88;;;;;;;2.96;100.00;102003.16;5051286;28;20472;-76
2023/12/27 01:52:30;;;;;;;18.95;7.32;;;;;;;3.00;100.00;102017.75;5052516;28;20435;-76
2023/12/27 01:54:55;;;;;;;18.63;7.53;;;;;;;3.00;100.00;102016.91;5052412;28;20094;-76
2023/12/27 01:57:20;;;;;;;16.20;7.25;;;;;;;3.00;100.00;102016.91;5052185;28;20045;-76
2023/12/27 01:59:46;;;;;;;12.70;6.25;;;;;;;2.95;100.00;102022.53;5051176;28;20044;-76
2023/12/27 02:02:13;;;;;;;17.40;7.07;;;;;;;2.99;100.00;102018.72;5052523;28;20025;-76
2023/12/27 02:04:39;;;;;;;14.30;6.45;;;;;;;2.94;100.00;102007.69;5052452;28;20053;-76
2023/12/27 02:07:05;;;;;;;20.27;7.55;;;;;;;3.03;100.00;102014.03;5051033;28;20065;-76
2023/12/27 02:09:31;;;;;;;17.25;6.22;;;;;;;3.07;100.00;102012.84;5050860;28;20029;-76
2023/12/27 02:11:56;;;;;;;17.95;8.93;;;;;;;3.08;100.00;102004.81;5034206;28;20048;-76
2023/12/27 02:14:22;;;;;;;19.35;7.43;;;;;;;3.08;100.00;102004.81;5050860;28;20031;-76
2023/12/27 02:16:48;;;;;;;14.63;6.30;;;;;;;3.02;100.00;101986.84;5052192;28;20476;-76
2023/12/27 02:19:21;;;;;;;16.67;7.28;;;;;;;3.07;100.00;101995.25;5050831;28;20037;-76
2023/12/27 02:21:48;;;;;;;15.40;6.50;;;;;;;3.12;100.00;101994.91;5051850;28;20594;-76
2023/12/27 02:24:17;;;;;;;16.27;7.38;;;;;;;3.15;100.00;102007.00;5050666;28;20044;-76
2023/12/27 02:26:43;;;;;;;17.00;6.72;;;;;;;3.16;100.00;102006.84;5052069;28;20035;-76
2023/12/27 02:29:08;;;;;;;16.58;6.93;;;;;;;3.19;100.00;101995.22;5051857;28;20041;-76
2023/12/27 02:31:34;;;;;;;18.08;7.03;;;;;;;3.16;100.00;101984.94;5051799;28;20029;-76
2023/12/27 02:33:59;;;;;;;14.50;7.90;;;;;;;3.21;100.00;101990.69;5050247;28;20061;-76
2023/12/27 02:36:24;;;;;;;17.38;7.13;;;;;;;3.23;100.00;101997.50;5051776;28;20055;-76
2023/12/27 02:38:50;;;;;;;19.55;9.55;;;;;;;3.25;100.00;101990.34;5050257;28;20033;-76
2023/12/27 02:41:15;;;;;;;12.02;6.05;;;;;;;3.25;100.00;101986.88;5033819;28;20029;-76
2023/12/27 02:43:41;;;;;;;16.65;8.10;;;;;;;3.33;100.00;101987.09;5051658;28;20037;-76
2023/12/27 02:46:06;;;;;;;19.15;8.48;;;;;;;3.34;100.00;101991.41;5051669;28;20063;-76
2023/12/27 02:48:31;;;;;;;17.75;8.30;;;;;;;3.35;100.00;101977.25;5050243;28;21091;-76
2023/12/27 02:50:57;;;;;;;16.52;7.53;;;;;;;3.33;100.00;101981.81;5050005;28;20032;-76
2023/12/27 02:53:23;;;;;;;14.70;6.78;;;;;;;3.37;100.00;101980.59;5049761;28;20067;-76
2023/12/27 02:55:49;;;;;;;13.38;6.95;;;;;;;3.36;100.00;101973.66;5051330;28;20047;-76
2023/12/27 02:58:14;;;;;;;16.85;7.82;;;;;;;3.40;100.00;101971.59;5050094;28;20025;-76
2023/12/27 03:00:41;;;;;;;20.20;7.97;;;;;;;3.41;100.00;101965.41;5051367;28;20029;-76
2023/12/27 03:03:06;;;;;;;23.52;7.47;;;;;;;3.41;100.00;101950.41;5051341;28;20037;-76
2023/12/27 03:05:31;;;;;;;18.25;6.90;;;;;;;3.36;100.00;101939.38;5033300;28;20075;-76
2023/12/27 03:07:57;;;;;;;15.30;7.05;;;;;;;3.46;100.00;101947.41;5033191;28;20043;-76
2023/12/27 03:10:22;;;;;;;15.75;6.97;;;;;;;3.45;100.00;101940.44;5050794;28;20033;-76
2023/12/27 03:12:47;;;;;;;16.20;7.25;;;;;;;3.45;100.00;101946.53;5049934;28;20068;-76
2023/12/27 03:15:13;;;;;;;13.32;6.43;;;;;;;3.40;100.00;101943.44;5049671;28;20041;-76
2023/12/27 03:17:38;;;;;;;17.80;7.30;;;;;;;3.43;100.00;101948.50;5050983;28;20037;-76
2023/12/27 03:20:04;;;;;;;14.00;6.30;;;;;;;3.41;100.00;101941.66;5050947;28;20488;-76
2023/12/27 03:22:30;;;;;;;14.43;7.53;;;;;;;3.44;100.00;101938.78;5049691;28;20025;-76
2023/12/27 03:24:55;;;;;;;23.10;8.77;;;;;;;3.51;100.00;101935.53;5032749;28;20025;-76
2023/12/27 03:27:20;;;;;;;16.00;7.53;;;;;;;3.61;100.00;101935.59;5049608;28;20124;-76
2023/12/27 03:29:46;;;;;;;15.63;7.68;;;;;;;3.58;100.00;101912.09;5050799;28;20037;-76
2023/12/27 03:32:11;;;;;;;21.05;8.90;;;;;;;3.69;100.00;101913.88;5049177;28;20396;-76
2023/12/27 03:34:38;;;;;;;21.42;7.65;;;;;;;3.72;100.00;101913.63;5049058;28;20092;-76
2023/12/27 03:37:04;;;;;;;16.67;8.07;;;;;;;3.72;100.00;101914.47;5050539;28;20047;-76
2023/12/27 03:39:29;;;;;;;28.73;11.02;;;;;;;3.67;100.00;101895.53;5049305;28;20037;-76
2023/12/27 03:41:54;;;;;;;15.60;8.57;;;;;;;3.69;100.00;101898.91;5049061;28;20028;-76
2023/12/27 03:44:20;;;;;;;14.38;7.78;;;;;;;3.76;100.00;101903.66;5016073;28;20131;-76
2023/12/27 03:46:45;;;;;;;15.50;8.57;;;;;;;3.77;100.00;101895.59;5050279;28;20024;-76
2023/12/27 03:49:10;;;;;;;20.48;8.88;;;;;;;3.78;100.00;101888.56;5048940;28;20045;-76
2023/12/27 03:51:36;;;;;;;19.45;8.93;;;;;;;3.79;100.00;101880.50;5048905;28;20033;-76
2023/12/27 03:54:01;;;;;;;14.30;8.38;;;;;;;3.82;100.00;101872.31;5032411;28;20370;-76
2023/12/27 03:56:26;;;;;;;23.45;7.57;;;;;;;3.78;100.00;101859.53;5048977;28;20091;-76
2023/12/27 03:58:52;;;;;;;18.45;6.75;;;;;;;3.85;100.00;101869.44;5050061;28;20025;-76
2023/12/27 04:01:20;;;;;;;15.48;7.40;;;;;;;3.83;100.00;101860.81;5048805;28;20104;-76
2023/12/27 04:03:47;;;;;;;17.10;8.75;;;;;;;3.82;100.00;101851.22;5032023;28;20044;-76
2023/12/27 04:06:19;;;;;;;17.75;7.60;;;;;;;3.83;100.00;101849.44;5031518;28;20035;-76
2023/12/27 04:08:45;;;;;;;21.67;7.72;;;;;;;3.86;100.00;101852.63;5049964;28;20060;-76
2023/12/27 04:11:10;;;;;;;19.73;9.32;;;;;;;3.83;100.00;101844.97;5048402;28;20042;-76
2023/12/27 04:13:36;;;;;;;18.45;8.18;;;;;;;3.85;100.00;101837.78;5048696;28;20040;-76
2023/12/27 04:16:01;;;;;;;17.45;7.22;;;;;;;3.88;100.00;101837.53;5049914;28;20033;-76
2023/12/27 04:18:26;;;;;;;16.35;7.38;;;;;;;3.91;100.00;101853.09;5049723;28;20036;-76
2023/12/27 04:20:52;;;;;;;16.25;7.70;;;;;;;3.91;100.00;101836.44;5049661;28;20029;-76
2023/12/27 04:23:17;;;;;;;16.40;7.63;;;;;;;3.92;100.00;101838.09;5048082;28;20131;-76
2023/12/27 04:25:43;;;;;;;21.20;9.13;;;;;;;3.89;100.00;101828.63;5015254;28;20380;-76
2023/12/27 04:28:08;;;;;;;19.05;7.63;;;;;;;3.91;100.00;101825.88;5048372;28;20499;-75
2023/12/27 04:30:34;;;;;;;15.43;6.53;;;;;;;3.97;100.00;101827.97;5048313;28;20039;-75
2023/12/27 04:32:59;;;;;;;14.55;7.53;;;;;;;4.01;100.00;101834.69;5047993;28;20092;-75
2023/12/27 04:35:24;;;;;;;13.50;6.47;;;;;;;4.02;100.00;101831.06;5031600;28;20029;-75
2023/12/27 04:37:50;;;;;;;15.63;6.72;;;;;;;4.05;100.00;101824.69;5014915;28;20041;-75
2023/12/27 04:40:15;;;;;;;15.48;7.32;;;;;;;4.10;100.00;101831.25;5031398;28;20037;-75
2023/12/27 04:42:40;;;;;;;15.88;6.78;;;;;;;4.12;100.00;101828.50;5050212;28;20021;-81
2023/12/27 04:45:07;;;;;;;15.82;7.78;;;;;;;4.11;100.00;101816.25;5050479;28;20037;-80
2023/12/27 04:47:32;;;;;;;16.23;7.70;;;;;;;4.16;100.00;101821.97;5050300;28;20040;-80
2023/12/27 04:49:58;;;;;;;18.30;5.80;;;;;;;4.20;100.00;101826.03;5048820;28;20041;-81
2023/12/27 04:52:23;;;;;;;12.20;6.35;;;;;;;4.24;100.00;101821.31;5048987;28;20025;-81
2023/12/27 04:54:48;;;;;;;17.20;6.47;;;;;;;4.20;100.00;101804.91;5050452;28;20028;-81
2023/12/27 04:57:14;;;;;;;16.50;7.90;;;;;;;4.28;100.00;101809.53;5049161;28;20036;-81
2023/12/27 04:59:39;;;;;;;16.58;5.68;;;;;;;4.32;100.00;101819.72;5050545;28;20059;-81
2023/12/27 05:02:04;;;;;;;17.73;7.15;;;;;;;4.24;100.00;101793.09;5049908;28;20480;-81
2023/12/27 05:04:30;;;;;;;13.20;5.95;;;;;;;4.37;100.00;101812.22;5050241;28;20109;-80
2023/12/27 05:06:55;;;;;;;13.90;7.68;;;;;;;4.39;100.00;101807.63;5048626;28;20071;-80
2023/12/27 05:09:20;;;;;;;14.77;6.75;;;;;;;4.43;100.00;101813.50;5049053;28;20028;-80
2023/12/27 05:11:46;;;;;;;14.40;5.63;;;;;;;4.46;100.00;101812.41;5049904;28;20033;-81
2023/12/27 05:14:12;;;;;;;16.23;5.18;;;;;;;4.46;100.00;101792.09;5050200;28;20119;-80
2023/12/27 05:16:37;;;;;;;12.38;5.65;;;;;;;4.49;100.00;101783.91;5048798;28;20029;-80
2023/12/27 05:19:03;;;;;;;15.93;4.95;;;;;;;4.54;100.00;101784.34;5049948;28;20472;-80
2023/12/27 05:21:29;;;;;;;13.95;6.18;;;;;;;4.54;100.00;101775.59;5050016;28;20124;-81
2023/12/27 05:23:54;;;;;;;18.15;5.00;;;;;;;4.58;100.00;101774.34;5050062;28;20024;-80
2023/12/27 05:26:19;;;;;;;14.90;4.90;;;;;;;4.57;100.00;101773.50;5049753;28;20074;-81
2023/12/27 05:28:45;;;;;;;15.38;5.47;;;;;;;4.60;100.00;101773.22;5047887;28;20029;-81
2023/12/27 05:31:10;;;;;;;11.27;5.13;;;;;;;4.65;100.00;101777.28;5048587;28;20087;-80
2023/12/27 05:33:35;;;;;;;10.95;4.18;;;;;;;4.67;100.00;101767.44;5049624;28;20053;-80
2023/12/27 05:36:01;;;;;;;14.80;5.30;;;;;;;4.63;100.00;101761.56;5049853;28;20082;-80
2023/12/27 05:38:26;;;;;;;15.35;4.63;;;;;;;4.66;100.00;101763.09;5048565;28;20092;-81
2023/12/27 05:40:51;;;;;;;8.23;3.45;;;;;;;4.66;100.00;101763.94;5031955;28;20029;-80
2023/12/27 05:43:17;;;;;;;11.55;4.65;;;;;;;4.70;100.00;101761.88;5049747;28;20029;-80
2023/12/27 05:45:42;;;;;;;10.57;4.05;;;;;;;4.68;100.00;101763.81;5049562;28;20017;-80
2023/12/27 05:48:08;;;;;;;14.05;4.90;;;;;;;4.73;100.00;101775.63;5049476;28;20029;-80
2023/12/27 05:50:33;;;;;;;11.95;4.68;;;;;;;4.72;100.00;101773.16;5049385;28;20037;-80
2023/12/27 05:52:58;;;;;;;14.45;4.43;;;;;;;4.71;100.00;101759.06;5049774;28;20442;-80
2023/12/27 05:55:24;;;;;;;20.17;5.10;;;;;;;4.74;100.00;101761.47;5048234;28;20182;-81
2023/12/27 05:57:49;;;;;;;18.58;7.70;;;;;;;4.75;100.00;101763.13;5049549;28;20036;-81
2023/12/27 06:00:17;;;;;;;13.27;4.93;;;;;;;4.76;100.00;101742.81;5048145;28;20067;-80
2023/12/27 06:02:43;;;;;;;9.27;5.05;;;;;;;4.72;100.00;101739.63;5049536;28;20064;-81
2023/12/27 06:05:12;;;;;;;13.82;5.18;;;;;;;4.72;100.00;101741.44;5048325;28;20096;-80
2023/12/27 06:07:37;;;;;;;11.68;4.30;;;;;;;4.71;100.00;101737.09;5049213;28;20037;-80
2023/12/27 06:10:03;;;;;;;15.43;5.78;;;;;;;4.76;100.00;101745.47;5047802;28;20664;-81
2023/12/27 06:12:28;;;;;;;16.10;5.13;;;;;;;4.75;100.00;101734.06;5049400;28;20040;-80
2023/12/27 06:14:54;;;;;;;13.98;5.05;;;;;;;4.75;100.00;101731.41;5049190;28;20380;-80
2023/12/27 06:17:19;;;;;;;12.05;4.80;;;;;;;4.76;100.00;101729.59;5049161;28;20127;-80
2023/12/27 06:19:44;;;;;;;8.48;3.80;;;;;;;4.74;100.00;101719.19;5049238;28;20029;-80
2023/12/27 06:22:10;;;;;;;15.85;5.07;;;;;;;4.76;100.00;101726.97;5049140;28;20078;-80
2023/12/27 06:24:35;;;;;;;19.20;5.65;;;;;;;4.77;100.00;101716.25;5049134;28;20036;-80
2023/12/27 06:27:00;;;;;;;13.88;4.45;;;;;;;4.77;100.00;101710.97;5048983;28;20120;-81
2023/12/27 06:29:26;;;;;;;17.33;6.57;;;;;;;4.76;100.00;101714.56;5051181;28;20049;-82
2023/12/27 06:31:51;;;;;;;14.38;6.00;;;;;;;4.77;100.00;101699.59;5052335;28;20028;-80
2023/12/27 06:34:18;;;;;;;13.77;5.60;;;;;;;4.77;100.00;101694.28;5052301;28;20060;-80
2023/12/27 06:36:44;;;;;;;12.68;4.82;;;;;;;4.70;100.00;101683.44;5052504;28;20033;-80
2023/12/27 06:39:09;;;;;;;11.15;4.75;;;;;;;4.76;100.00;101690.78;5040224;28;20033;-80
2023/12/27 06:41:34;;;;;;;16.42;7.45;;;;;;;4.76;100.00;101676.75;5052156;28;20119;-80
2023/12/27 06:44:00;;;;;;;7.05;3.75;;;;;;;4.74;100.00;101668.13;5051162;28;20132;-80
2023/12/27 06:46:26;;;;;;;14.77;4.50;;;;;;;4.76;100.00;101668.81;5052280;28;20025;-80
2023/12/27 06:48:51;;;;;;;14.90;4.85;;;;;;;4.72;100.00;101646.31;5052368;28;20033;-80
2023/12/27 06:51:16;;;;;;;11.10;4.57;;;;;;;4.74;100.00;101645.19;5052197;28;20041;-80
2023/12/27 06:53:42;;;;;;;11.20;5.10;;;;;;;4.71;100.00;101648.09;5051344;28;20036;-80
2023/12/27 06:56:07;;;;;;;14.93;5.60;;;;;;;4.77;100.00;101660.78;5052852;28;20040;-80
2023/12/27 06:58:32;;;;;;;16.95;4.90;;;;;;;4.77;100.00;101652.00;5052293;28;20029;-80
2023/12/27 07:00:58;;;;;;;13.98;6.50;;;;;;;4.76;100.00;101640.59;5052175;28;20025;-80
2023/12/27 07:03:26;;;;;;;12.60;4.80;;;;;;;4.76;100.00;101647.69;5052344;28;20040;-81
2023/12/27 07:05:51;;;;;;;12.52;5.10;;;;;;;4.79;100.00;101642.97;5050861;28;20029;-80
2023/12/27 07:08:17;;;;;;;12.73;4.93;;;;;;;4.80;100.00;101639.34;5052174;28;20116;-81
2023/12/27 07:10:43;;;;;;;15.27;5.95;;;;;;;4.78;100.00;101629.88;5051997;28;20029;-80
2023/12/27 07:13:08;;;;;;;15.65;4.78;;;;;;;4.84;100.00;101640.72;5052054;28;20051;-80
2023/12/27 07:15:34;;;;;;;16.00;5.30;;;;;;;4.87;100.00;101641.41;5052370;28;20033;-82
2023/12/27 07:17:59;;;;;;;13.52;5.50;;;;;;;4.88;100.00;101641.28;5052846;28;20071;-82
2023/12/27 07:20:25;;;;;;;11.57;3.92;;;;;;;4.89;100.00;101628.91;5052488;28;20025;-81
2023/12/27 07:22:50;;;;;;;13.32;4.82;;;;;;;4.87;100.00;101623.75;5034311;28;20032;-81
2023/12/27 07:25:15;;;;;;;10.75;4.50;;;;;;;4.94;100.00;101643.38;5051980;28;20036;-81
2023/12/27 07:27:41;;;;;;;11.75;5.25;;;;;;;4.92;100.00;101629.44;5051988;28;20084;-81
2023/12/27 07:30:07;;;;;;;12.30;4.90;;;;;;;4.96;100.00;101630.03;5050595;28;20036;-81
2023/12/27 07:32:32;;;;;;;11.93;4.68;;;;;;;5.01;100.00;101636.56;5051711;28;21028;-77
2023/12/27 07:34:58;;;;;;;10.13;4.68;;;;;;;5.03;100.00;101629.31;5050854;28;20081;-80
2023/12/27 07:37:24;;;;;;;9.55;4.60;;;;;;;5.03;100.00;101621.38;5051312;28;20495;-84
2023/12/27 07:39:50;;;;;;;14.27;5.03;;;;;;;4.99;100.00;101611.22;5051603;28;20373;-83
2023/12/27 07:42:16;;;;;;;9.85;4.47;;;;;;;5.08;100.00;101620.94;5043264;28;20027;-84
2023/12/27 07:44:41;;;;;;;8.95;4.85;;;;;;;5.14;100.00;101638.91;5034430;28;20025;-84
2023/12/27 07:47:07;;;;;;;13.13;4.75;;;;;;;5.08;100.00;101618.28;5034564;28;20036;-83
2023/12/27 07:49:32;;;;;;;13.63;5.82;;;;;;;5.18;100.00;101629.69;5051972;28;20036;-80
2023/12/27 07:51:58;;;;;;;12.30;5.20;;;;;;;5.21;100.00;101631.22;5051043;28;20036;-81
2023/12/27 07:54:23;;;;;;;10.88;5.15;;;;;;;5.22;100.00;101625.81;5033086;28;20037;-78
2023/12/27 07:56:48;;;;;;;15.00;5.70;;;;;;;5.24;100.00;101629.16;5048911;28;20470;-78
2023/12/27 07:59:14;;;;;;;9.68;5.88;;;;;;;5.24;100.00;101626.50;5049068;28;20037;-79
2023/12/27 08:01:39;;;;;;;8.52;4.30;;;;;;;5.25;100.00;101625.50;5050416;28;20029;-79
2023/12/27 08:04:04;;;;;;;11.77;5.20;;;;;;;5.32;100.00;101622.28;5048701;28;20469;-79
2023/12/27 08:06:30;;;;;;;13.98;6.38;;;;;;;5.24;100.00;101605.34;5048441;28;20028;-79
2023/12/27 08:08:55;;;;;;;10.30;5.20;;;;;;;5.36;100.00;101624.50;5050198;28;20399;-78
2023/12/27 08:11:22;;;;;;;10.75;5.03;;;;;;;5.32;100.00;101609.06;5049050;28;20021;-78
2023/12/27 08:13:47;;;;;;;12.27;5.22;;;;;;;5.42;100.00;101623.09;5049212;28;20308;-79
2023/12/27 08:16:13;;;;;;;9.95;5.45;;;;;;;5.45;100.00;101615.72;5048102;28;20039;-79
2023/12/27 08:18:38;;;;;;;14.25;6.97;;;;;;;5.48;100.00;101611.97;5049610;28;20448;-78
2023/12/27 08:21:04;;;;;;;14.68;5.70;;;;;;;5.48;100.00;101606.66;5048103;28;20542;-79
2023/12/27 08:23:30;;;;;;;12.93;6.05;;;;;;;5.56;100.00;101609.41;5031777;28;20037;-81
2023/12/27 08:25:56;;;;;;;12.60;5.43;;;;;;;5.59;100.00;101601.19;5047782;28;20055;-76
2023/12/27 08:28:22;;;;;;;12.90;5.85;;;;;;;5.62;100.00;101595.59;5046124;28;20051;-78
2023/12/27 08:30:48;;;;;;;11.93;5.63;;;;;;;5.63;100.00;101589.34;5046890;28;20025;-78
2023/12/27 08:33:13;;;;;;;16.52;6.18;;;;;;;5.67;100.00;101577.47;5045478;28;20029;-78
2023/12/27 08:35:39;;;;;;;13.95;5.32;;;;;;;5.76;100.00;101585.50;5045048;28;20045;-78
2023/12/27 08:38:10;;;;;;;11.13;5.55;;;;;;;5.81;100.00;101575.31;5047633;28;20488;-77
2023/12/27 08:40:35;;;;;;;12.10;4.97;;;;;;;5.76;100.00;101553.75;5047570;28;20024;-77
2023/12/27 08:43:01;;;;;;;13.05;5.85;;;;;;;5.89;100.00;101560.38;5046167;28;20028;-77
2023/12/27 08:45:26;;;;;;;13.07;5.70;;;;;;;5.95;100.00;101566.91;5047679;28;20028;-73
2023/12/27 08:47:52;;;;;;;12.60;5.65;;;;;;;5.97;100.00;101561.44;5047490;28;20029;-76
2023/12/27 08:50:17;;;;;;;13.68;5.75;;;;;;;5.97;100.00;101550.88;5047281;28;20029;-76
2023/12/27 08:52:43;;;;;;;12.55;5.95;;;;;;;6.06;100.00;101542.88;5046959;28;20111;-77
2023/12/27 08:55:10;;;;;;;11.38;5.03;;;;;;;6.09;100.00;101531.97;5048094;28;20093;-76
2023/12/27 08:57:37;;;;;;;11.38;5.55;;;;;;;6.13;100.00;101543.94;5029022;28;20037;-77
2023/12/27 09:00:05;;;;;;;11.80;5.47;;;;;;;6.14;100.00;101542.13;5047024;28;20067;-75
2023/12/27 09:02:31;;;;;;;12.40;5.55;;;;;;;6.23;100.00;101549.13;5045713;28;20040;-76
2023/12/27 09:04:56;;;;;;;12.98;5.93;;;;;;;6.25;100.00;101533.94;5046756;28;20483;-76
2023/12/27 09:07:21;;;;;;;15.63;6.18;;;;;;;6.31;100.00;101530.72;5047202;28;20040;-77
2023/12/27 09:09:46;;;;;;;17.13;5.65;;;;;;;6.36;100.00;101532.88;5047136;28;20032;-77
2023/12/27 09:12:12;;;;;;;13.32;5.40;;;;;;;6.35;100.00;101524.09;5045757;28;20064;-76
2023/12/27 09:14:39;;;;;;;9.93;5.03;;;;;;;6.43;100.00;101522.50;5047118;28;20071;-76
2023/12/27 09:17:05;;;;;;;15.88;6.88;;;;;;;6.45;100.00;101523.19;5045378;28;20083;-76
2023/12/27 09:19:30;;;;;;;10.85;4.88;;;;;;;6.48;100.00;101515.75;5045762;28;20029;-76
2023/12/27 09:21:56;;;;;;;13.45;5.47;;;;;;;6.47;100.00;101521.19;5047046;28;20025;-76
2023/12/27 09:24:21;;;;;;;12.15;5.30;;;;;;;6.56;100.00;101544.16;5046673;28;20134;-75
2023/12/27 09:26:48;;;;;;;13.70;5.10;;;;;;;6.55;100.00;101530.06;5045273;28;20139;-76
2023/12/27 09:29:14;;;;;;;12.70;5.95;;;;;;;6.61;100.00;101512.72;5046496;28;20480;-76
2023/12/27 09:31:40;;;;;;;12.70;5.28;;;;;;;6.65;100.00;101499.97;5044977;28;20035;-76
2023/12/27 09:34:06;;;;;;;9.60;4.00;;;;;;;6.67;100.00;101508.63;5046249;28;20464;-76
2023/12/27 09:36:32;;;;;;;11.82;4.22;;;;;;;6.66;100.00;101499.84;5031126;28;20033;-79
2023/12/27 09:38:58;;;;;;;14.55;4.60;;;;;;;6.72;100.00;101511.63;5013132;28;20510;-75
2023/12/27 09:41:23;;;;;;;9.52;4.40;;;;;;;6.71;100.00;101494.09;5046705;28;20025;-76
2023/12/27 09:43:52;;;;;;;12.23;4.95;;;;;;;6.72;100.00;101491.25;5046625;28;20496;-76
2023/12/27 09:46:18;;;;;;;11.90;4.80;;;;;;;6.77;100.00;101493.44;5046684;28;20187;-76
2023/12/27 09:48:44;;;;;;;11.77;4.53;;;;;;;6.78;100.00;101495.91;5046813;28;20021;-76
2023/12/27 09:51:11;;;;;;;13.07;5.20;;;;;;;6.79;100.00;101481.69;5046510;28;20116;-78
2023/12/27 09:53:36;;;;;;;7.97;4.53;;;;;;;6.82;100.00;101483.22;5028741;28;20033;-79
2023/12/27 09:56:03;;;;;;;9.02;3.97;;;;;;;6.87;100.00;101483.56;5045840;28;20060;-78
2023/12/27 09:58:28;;;;;;;10.10;3.88;;;;;;;6.91;100.00;101490.22;5046982;28;20032;-77
2023/12/27 10:01:01;;;;;;;11.27;4.43;;;;;;;6.92;100.00;101485.75;5046775;28;20029;-75
2023/12/27 10:03:38;;;;;;;11.82;4.32;;;;;;;6.98;100.00;101485.94;5047728;28;20104;-77
2023/12/27 10:06:16;;;;;;;9.00;4.47;;;;;;;7.03;100.00;101485.47;5050187;28;20131;-77
2023/12/27 10:08:41;;;;;;;9.48;4.07;;;;;;;7.09;100.00;101487.50;5050917;28;20964;-77
2023/12/27 10:11:09;;;;;;;12.60;5.30;;;;;;;7.13;100.00;101482.72;5050418;28;20124;-76
2023/12/27 10:13:41;;;;;;;8.48;4.07;;;;;;;7.19;100.00;101490.03;5050498;28;20741;-77
2023/12/27 10:16:06;;;;;;;8.25;4.30;;;;;;;7.27;100.00;101491.91;5048571;28;20032;-77
2023/12/27 10:18:32;;;;;;;11.70;3.55;;;;;;;7.31;100.00;101478.16;5050001;28;20025;-77
2023/12/27 10:20:58;;;;;;;5.18;2.97;;;;;;;7.34;100.00;101467.22;5050394;28;20115;-77
2023/12/27 10:23:24;;;;;;;5.05;2.70;;;;;;;7.37;100.00;101466.91;5048732;28;20074;-77
2023/12/27 10:25:51;;;;;;;6.15;3.10;;;;;;;7.43;100.00;101479.50;5049598;28;20033;-77
2023/12/27 10:28:16;;;;;;;8.38;3.60;;;;;;;7.49;100.00;101474.56;5050189;28;20064;-77
2023/12/27 10:30:44;;;;;;;6.93;3.05;;;;;;;7.53;100.00;101468.78;5048172;28;20060;-77
2023/12/27 10:33:09;;;;;;;6.32;2.72;;;;;;;7.57;100.00;101453.34;5049959;28;20025;-75
2023/12/27 10:35:38;;;;;;;5.95;2.50;;;;;;;7.60;100.00;101447.72;5049373;28;20028;-77
2023/12/27 10:38:06;;;;;;;4.97;2.60;;;;;;;7.68;100.00;101458.38;5050623;28;20029;-77
2023/12/27 10:40:36;;;;;;;4.68;2.60;;;;;;;7.68;100.00;101435.31;5049527;28;20043;-77
2023/12/27 10:43:02;;;;;;;5.93;2.58;;;;;;;7.75;100.00;101438.13;5049413;28;20025;-76
2023/12/27 10:45:28;;;;;;;7.05;2.97;;;;;;;7.80;100.00;101430.50;5047823;28;20032;-76
2023/12/27 10:47:59;;;;;;;7.68;2.78;;;;;;;7.85;100.00;101430.00;5049838;28;20033;-76
2023/12/27 10:50:27;;;;;;;4.88;2.80;;;;;;;7.86;100.00;101413.91;5050379;28;20032;-76
2023/12/27 10:53:08;;;;;;;8.32;3.35;;;;;;;7.95;100.00;101411.25;5048405;28;20028;-76
2023/12/27 10:55:35;;;;;;;8.02;2.83;;;;;;;8.01;100.00;101422.03;5048006;28;20122;-76
2023/12/27 10:58:03;;;;;;;7.13;2.72;;;;;;;8.05;100.00;101427.88;5045528;28;20075;-76
2023/12/27 11:00:29;;;;;;;6.10;2.78;;;;;;;8.08;100.00;101424.88;5047003;28;20107;-75
2023/12/27 11:02:57;;;;;;;6.00;2.70;;;;;;;8.06;100.00;101411.75;5047174;28;20079;-76
2023/12/27 11:05:24;;;;;;;4.85;2.42;;;;;;;8.14;100.00;101408.25;5047050;28;20060;-76
2023/12/27 11:07:53;;;;;;;5.35;2.45;;;;;;;8.12;100.00;101397.81;5047334;28;20124;-76
2023/12/27 11:10:19;;;;;;;9.30;2.28;;;;;;;8.18;100.00;101404.28;5047560;28;20025;-76
2023/12/27 11:12:46;;;;;;;5.50;2.72;;;;;;;8.20;100.00;101398.78;5046614;28;20047;-76